Time;durP1;ratioP1;P1;durP2;ratioP2;P2;SDS_P1;SDS_P2;PMS_P1;PMS_P2;Temp;Humidity;BMP_temperature;BMP_pressure;BME280_temperature;BME280_humidity;BME280_pressure;Samples;Min_cycle;Max_cycle;Signal;HPM_P1;HPM_P2
2024/01/09 00:00:48;;;;;;;8.75;5.03;;;-1.60;99.90;;;;;;5032619;28;20363;-72
2024/01/09 00:03:13;;;;;;;9.43;5.53;;;-1.60;99.90;;;;;;5036663;28;20115;-78
2024/01/09 00:05:39;;;;;;;10.95;5.47;;;-1.70;99.90;;;;;;5036845;28;20390;-77
2024/01/09 00:08:05;;;;;;;8.38;5.10;;;-1.70;99.90;;;;;;5038662;28;20060;-79
2024/01/09 00:10:31;;;;;;;8.55;5.00;;;-1.70;99.90;;;;;;5030890;28;20545;-72
2024/01/09 00:12:58;;;;;;;8.50;4.57;;;-1.70;99.90;;;;;;5039895;28;20100;-73
2024/01/09 00:15:24;;;;;;;10.93;4.93;;;-1.70;99.90;;;;;;5038141;28;20458;-73
2024/01/09 00:17:51;;;;;;;10.00;4.93;;;-1.80;99.90;;;;;;5037654;28;20029;-78
2024/01/09 00:20:17;;;;;;;11.57;5.15;;;-1.80;99.90;;;;;;5035109;28;20029;-70
2024/01/09 00:22:43;;;;;;;9.95;5.30;;;-1.80;99.90;;;;;;5032774;28;20025;-78
2024/01/09 00:25:09;;;;;;;10.43;5.28;;;-1.80;99.90;;;;;;5033963;28;20025;-76
2024/01/09 00:27:35;;;;;;;9.57;4.40;;;-1.80;99.90;;;;;;5039245;28;20079;-77
2024/01/09 00:30:02;;;;;;;10.82;4.93;;;-1.90;99.90;;;;;;5035100;28;20129;-79
2024/01/09 00:32:29;;;;;;;9.30;5.20;;;-1.90;99.90;;;;;;5038565;28;20025;-78
2024/01/09 00:34:55;;;;;;;9.05;5.40;;;-1.90;99.90;;;;;;5035375;28;20029;-72
2024/01/09 00:37:20;;;;;;;10.52;4.50;;;-1.80;99.90;;;;;;5037169;28;20044;-77
2024/01/09 00:39:47;;;;;;;10.85;5.30;;;-1.90;99.90;;;;;;5037276;28;20021;-74
2024/01/09 00:42:12;;;;;;;8.88;4.63;;;-2.00;99.90;;;;;;5036817;28;20372;-75
2024/01/09 00:44:41;;;;;;;11.00;4.72;;;-1.90;99.90;;;;;;5039016;28;20024;-70
2024/01/09 00:47:07;;;;;;;7.72;4.55;;;-1.90;99.90;;;;;;5035520;28;20021;-72
2024/01/09 00:49:32;;;;;;;10.32;5.50;;;-1.90;99.90;;;;;;5039071;28;20021;-70
2024/01/09 00:51:58;;;;;;;9.70;4.85;;;-1.90;99.90;;;;;;5034942;28;20056;-72
2024/01/09 00:54:24;;;;;;;10.13;5.20;;;-1.80;99.90;;;;;;5037057;28;20372;-77
2024/01/09 00:56:50;;;;;;;9.95;5.05;;;-1.90;99.90;;;;;;5038043;28;20038;-78
2024/01/09 00:59:15;;;;;;;10.02;5.00;;;-1.90;99.90;;;;;;5037443;28;20040;-72
2024/01/09 01:01:41;;;;;;;7.28;4.50;;;-1.80;99.90;;;;;;5039373;28;20059;-70
2024/01/09 01:04:07;;;;;;;7.47;4.60;;;-2.00;99.90;;;;;;5039206;28;20378;-75
2024/01/09 01:06:43;;;;;;;8.57;4.82;;;-2.00;99.90;;;;;;5037333;28;20029;-76
2024/01/09 01:09:08;;;;;;;7.05;4.25;;;-1.90;99.90;;;;;;5032734;28;20059;-73
2024/01/09 01:11:34;;;;;;;8.73;4.68;;;-2.00;99.90;;;;;;5035225;28;20557;-73
2024/01/09 01:14:00;;;;;;;8.77;5.15;;;-1.90;99.90;;;;;;5035867;28;20083;-77
2024/01/09 01:16:26;;;;;;;7.60;4.68;;;-1.80;99.90;;;;;;5037487;28;20103;-73
2024/01/09 01:18:52;;;;;;;9.43;4.60;;;-2.00;99.90;;;;;;5037590;28;20442;-75
2024/01/09 01:21:17;;;;;;;9.90;4.85;;;-2.00;99.90;;;;;;5034229;28;20029;-77
2024/01/09 01:23:43;;;;;;;6.72;4.10;;;-2.00;99.90;;;;;;5039861;28;20421;-72
2024/01/09 01:26:09;;;;;;;8.70;5.07;;;-2.00;99.90;;;;;;5039628;28;20037;-78
2024/01/09 01:28:34;;;;;;;9.25;5.10;;;-2.10;99.90;;;;;;5042402;28;20036;-73
2024/01/09 01:31:00;;;;;;;7.07;4.60;;;-2.00;99.90;;;;;;5040246;28;20498;-77
2024/01/09 01:33:26;;;;;;;13.10;5.53;;;-2.00;99.90;;;;;;5044387;28;20079;-76
2024/01/09 01:35:51;;;;;;;9.23;4.68;;;-2.00;99.90;;;;;;5038187;28;20045;-75
2024/01/09 01:38:18;;;;;;;8.27;5.18;;;-2.00;99.90;;;;;;5040353;28;20452;-73
2024/01/09 01:40:44;;;;;;;10.13;5.22;;;-2.10;99.90;;;;;;5046827;28;20139;-78
2024/01/09 01:43:09;;;;;;;10.93;5.45;;;-2.00;99.90;;;;;;5044336;28;20053;-75
2024/01/09 01:45:35;;;;;;;9.02;4.82;;;-2.00;99.90;;;;;;5046088;28;20037;-73
2024/01/09 01:48:02;;;;;;;11.63;4.90;;;-2.10;99.90;;;;;;5044614;28;20043;-73
2024/01/09 01:50:32;;;;;;;7.00;4.30;;;-2.00;99.90;;;;;;5044999;28;20041;-78
2024/01/09 01:53:00;;;;;;;7.35;4.38;;;-2.00;99.90;;;;;;5044284;28;20131;-76
2024/01/09 01:55:27;;;;;;;9.02;4.82;;;-2.00;99.90;;;;;;5045845;28;20030;-78
2024/01/09 01:57:55;;;;;;;9.27;5.07;;;-2.00;99.90;;;;;;5043117;28;20494;-78
2024/01/09 02:00:21;;;;;;;9.65;4.60;;;-2.00;99.90;;;;;;5043062;28;20025;-79
2024/01/09 02:02:51;;;;;;;8.70;4.63;;;-2.00;99.90;;;;;;5042520;28;20026;-77
2024/01/09 02:05:18;;;;;;;7.78;3.72;;;-2.00;99.90;;;;;;5047335;28;20029;-74
2024/01/09 02:07:49;;;;;;;9.45;4.78;;;-2.10;99.90;;;;;;5044304;28;20044;-77
2024/01/09 02:10:16;;;;;;;8.27;4.72;;;-2.10;99.90;;;;;;5049180;28;20039;-76
2024/01/09 02:12:42;;;;;;;6.88;4.22;;;-2.10;99.90;;;;;;5042935;28;20136;-74
2024/01/09 02:15:09;;;;;;;7.97;4.88;;;-2.10;99.90;;;;;;5043509;28;20043;-77
2024/01/09 02:17:35;;;;;;;8.18;4.22;;;-2.10;99.90;;;;;;5042691;28;20021;-77
2024/01/09 02:20:01;;;;;;;7.45;4.57;;;-2.10;99.90;;;;;;5045638;28;20029;-75
2024/01/09 02:22:27;;;;;;;8.23;4.47;;;-2.10;99.90;;;;;;5042820;28;20485;-76
2024/01/09 02:24:53;;;;;;;9.18;4.70;;;-2.10;99.90;;;;;;5046756;28;20028;-71
2024/01/09 02:27:47;;;;;;;7.45;4.35;;;-2.10;99.90;;;;;;5044803;28;20068;-72
2024/01/09 02:30:13;;;;;;;10.57;5.15;;;-2.20;99.90;;;;;;5049384;28;20017;-73
2024/01/09 02:32:39;;;;;;;8.80;4.40;;;-2.20;99.90;;;;;;5051237;28;20108;-77
2024/01/09 02:35:05;;;;;;;8.77;4.45;;;-2.20;99.90;;;;;;5046569;28;20025;-79
2024/01/09 02:37:31;;;;;;;7.13;4.28;;;-2.30;99.90;;;;;;5041902;28;20025;-75
2024/01/09 02:40:00;;;;;;;7.03;4.30;;;-2.20;99.90;;;;;;5043275;28;20124;-78
2024/01/09 02:42:27;;;;;;;10.18;4.20;;;-2.20;99.90;;;;;;5043453;28;20026;-74
2024/01/09 02:44:55;;;;;;;7.07;4.43;;;-2.20;99.90;;;;;;5044628;28;20108;-73
2024/01/09 02:47:22;;;;;;;7.82;4.43;;;-2.30;99.90;;;;;;5041913;28;20029;-73
2024/01/09 02:49:47;;;;;;;7.97;4.35;;;-2.30;99.90;;;;;;5044508;28;20511;-71
2024/01/09 02:52:14;;;;;;;8.15;4.20;;;-2.30;99.90;;;;;;5049501;28;20029;-71
2024/01/09 02:54:39;;;;;;;7.22;4.10;;;-2.40;99.90;;;;;;5042885;28;20029;-75
2024/01/09 02:57:05;;;;;;;9.23;4.80;;;-2.30;99.90;;;;;;5041268;28;20116;-76
2024/01/09 02:59:31;;;;;;;13.27;4.65;;;-2.30;99.90;;;;;;5041989;28;20088;-77
2024/01/09 03:01:57;;;;;;;9.32;4.55;;;-2.30;99.90;;;;;;5040015;28;20033;-72
2024/01/09 03:04:22;;;;;;;10.20;4.40;;;-2.30;99.90;;;;;;5045837;28;20032;-74
2024/01/09 03:06:48;;;;;;;8.52;4.13;;;-2.40;99.90;;;;;;5040888;28;20492;-70
2024/01/09 03:09:14;;;;;;;9.48;4.45;;;-2.40;99.90;;;;;;5044691;28;20033;-77
2024/01/09 03:11:39;;;;;;;8.30;4.13;;;-2.50;99.90;;;;;;5052430;28;20021;-75
2024/01/09 03:14:05;;;;;;;9.43;5.10;;;-2.40;99.90;;;;;;5041438;28;20033;-78
2024/01/09 03:16:31;;;;;;;8.93;5.03;;;-2.40;99.90;;;;;;5044392;28;20603;-73
2024/01/09 03:18:56;;;;;;;9.23;4.30;;;-2.40;99.90;;;;;;5045415;28;20032;-70
2024/01/09 03:21:22;;;;;;;7.00;3.85;;;-2.40;99.90;;;;;;5042107;28;20036;-77
2024/01/09 03:23:48;;;;;;;8.40;4.60;;;-2.40;99.90;;;;;;5043783;28;20025;-77
2024/01/09 03:26:14;;;;;;;7.75;4.35;;;-2.50;99.90;;;;;;5042535;28;20394;-77
2024/01/09 03:28:40;;;;;;;8.40;3.95;;;-2.50;99.90;;;;;;5036522;28;20696;-70
2024/01/09 03:31:06;;;;;;;10.43;4.22;;;-2.40;99.90;;;;;;5043146;28;20100;-72
2024/01/09 03:33:31;;;;;;;9.75;4.45;;;-2.40;99.90;;;;;;5046111;28;20021;-75
2024/01/09 03:35:58;;;;;;;8.63;4.47;;;-2.50;99.90;;;;;;5050041;28;20087;-76
2024/01/09 03:38:23;;;;;;;9.73;4.72;;;-2.40;99.90;;;;;;5038138;28;20420;-77
2024/01/09 03:40:50;;;;;;;6.45;3.95;;;-2.40;99.90;;;;;;5043211;28;20081;-72
2024/01/09 03:43:16;;;;;;;9.20;4.57;;;-2.50;99.90;;;;;;5043908;28;20056;-72
2024/01/09 03:45:41;;;;;;;8.50;4.05;;;-2.50;99.90;;;;;;5040752;28;20057;-73
2024/01/09 03:48:07;;;;;;;9.90;4.28;;;-2.50;99.90;;;;;;5044322;28;20033;-77
2024/01/09 03:50:33;;;;;;;8.05;4.68;;;-2.50;99.90;;;;;;5042588;28;20686;-76
2024/01/09 03:52:58;;;;;;;8.30;4.25;;;-2.60;99.90;;;;;;5043071;28;20032;-75
2024/01/09 03:55:25;;;;;;;9.75;5.00;;;-2.50;99.90;;;;;;5039676;28;20032;-73
2024/01/09 03:57:51;;;;;;;10.13;4.53;;;-2.50;99.90;;;;;;5039471;28;20504;-75
2024/01/09 04:00:17;;;;;;;11.43;4.88;;;-2.60;99.90;;;;;;5038017;28;20033;-73
2024/01/09 04:02:43;;;;;;;8.52;4.05;;;-2.50;99.90;;;;;;5041403;28;20025;-72
2024/01/09 04:05:08;;;;;;;9.13;4.32;;;-2.50;99.90;;;;;;5042422;28;20033;-77
2024/01/09 04:07:34;;;;;;;8.68;4.13;;;-2.50;99.90;;;;;;5044154;28;20394;-76
2024/01/09 04:10:00;;;;;;;8.07;4.35;;;-2.50;99.90;;;;;;5043452;28;20104;-70
2024/01/09 04:12:25;;;;;;;8.48;4.13;;;-2.60;99.90;;;;;;5046478;28;20068;-74
2024/01/09 04:14:51;;;;;;;9.50;4.35;;;-2.60;99.90;;;;;;5041303;28;20022;-70
2024/01/09 04:17:17;;;;;;;8.25;4.10;;;-2.70;99.90;;;;;;5046687;28;20060;-75
2024/01/09 04:19:42;;;;;;;7.75;4.13;;;-2.50;99.90;;;;;;5045247;28;20454;-76
2024/01/09 04:22:08;;;;;;;9.80;4.25;;;-2.50;99.90;;;;;;5046635;28;20573;-74
2024/01/09 04:24:34;;;;;;;10.15;5.13;;;-2.50;99.90;;;;;;5041157;28;20021;-71
2024/01/09 04:27:02;;;;;;;7.55;4.47;;;-2.60;99.90;;;;;;5045231;28;20022;-70
2024/01/09 04:29:28;;;;;;;7.97;4.45;;;-2.60;99.90;;;;;;5044327;28;20120;-73
2024/01/09 04:31:53;;;;;;;9.27;4.30;;;-2.70;99.90;;;;;;5043703;28;20109;-73
2024/01/09 04:34:19;;;;;;;9.05;4.60;;;-2.70;99.90;;;;;;5049461;28;20095;-76
2024/01/09 04:36:45;;;;;;;10.00;4.57;;;-2.60;99.90;;;;;;5042111;28;20487;-76
2024/01/09 04:39:10;;;;;;;7.00;4.47;;;-2.50;99.90;;;;;;5040939;28;20029;-75
2024/01/09 04:41:36;;;;;;;10.13;4.00;;;-2.60;99.90;;;;;;5042325;28;20029;-75
2024/01/09 04:44:02;;;;;;;8.38;4.18;;;-2.60;99.90;;;;;;5043162;28;20029;-76
2024/01/09 04:46:27;;;;;;;8.57;3.92;;;-2.70;99.90;;;;;;5041450;28;20048;-73
2024/01/09 04:48:53;;;;;;;9.88;4.38;;;-2.70;99.90;;;;;;5040722;28;20068;-76
2024/01/09 04:51:19;;;;;;;9.32;4.88;;;-2.80;99.90;;;;;;5043592;28;20195;-74
2024/01/09 04:53:45;;;;;;;9.27;5.10;;;-2.70;99.90;;;;;;5041681;28;20052;-75
2024/01/09 04:56:10;;;;;;;10.00;4.63;;;-2.70;99.90;;;;;;5045674;28;20037;-76
2024/01/09 04:58:36;;;;;;;8.23;5.18;;;-2.80;99.90;;;;;;5044958;28;20029;-74
2024/01/09 05:01:02;;;;;;;10.73;4.97;;;-2.80;99.90;;;;;;5039817;28;20041;-71
2024/01/09 05:03:27;;;;;;;8.27;4.50;;;-2.80;99.90;;;;;;5045855;28;20024;-72
2024/01/09 05:05:53;;;;;;;8.95;4.93;;;-2.90;99.90;;;;;;5047479;28;20022;-73
2024/01/09 05:08:19;;;;;;;8.35;4.32;;;-2.80;99.90;;;;;;5047904;28;20032;-77
2024/01/09 05:10:45;;;;;;;7.85;4.53;;;-2.80;99.90;;;;;;5049159;28;20029;-77
2024/01/09 05:13:11;;;;;;;12.13;4.90;;;-2.80;99.90;;;;;;5052593;28;20048;-76
2024/01/09 05:15:36;;;;;;;8.57;4.55;;;-2.80;99.90;;;;;;5053429;28;20039;-75
2024/01/09 05:18:02;;;;;;;9.18;4.65;;;-2.70;99.90;;;;;;5048786;28;20128;-76
2024/01/09 05:20:28;;;;;;;9.55;4.65;;;-2.80;99.90;;;;;;5050925;28;20445;-74
2024/01/09 05:22:55;;;;;;;11.75;5.20;;;-2.90;99.90;;;;;;5051295;28;20056;-76
2024/01/09 05:25:20;;;;;;;7.78;4.20;;;-2.80;99.90;;;;;;5046146;28;20074;-77
2024/01/09 05:27:46;;;;;;;10.23;5.03;;;-2.80;99.90;;;;;;5048668;28;20029;-77
2024/01/09 05:30:12;;;;;;;8.32;4.78;;;-2.80;99.90;;;;;;5041341;28;20037;-75
2024/01/09 05:32:38;;;;;;;9.20;4.90;;;-2.80;99.90;;;;;;5051522;28;20040;-76
2024/01/09 05:35:05;;;;;;;11.80;4.90;;;-2.70;99.90;;;;;;5048223;28;20039;-74
2024/01/09 05:37:30;;;;;;;8.73;4.47;;;-2.60;99.90;;;;;;5050998;28;20043;-77
2024/01/09 05:39:57;;;;;;;12.23;5.40;;;-2.60;99.90;;;;;;5053611;28;20034;-77
2024/01/09 05:42:22;;;;;;;9.52;4.53;;;-2.70;99.90;;;;;;5049414;28;20056;-75
2024/01/09 05:44:48;;;;;;;11.32;4.63;;;-2.70;99.90;;;;;;5048404;28;20059;-77
2024/01/09 05:47:15;;;;;;;10.50;5.22;;;-2.70;99.90;;;;;;5044677;28;20060;-77
2024/01/09 05:49:40;;;;;;;8.75;4.63;;;-2.60;99.90;;;;;;5045607;28;20029;-77
2024/01/09 05:52:06;;;;;;;10.82;5.75;;;-2.60;99.90;;;;;;5048360;28;20511;-76
2024/01/09 05:54:32;;;;;;;11.18;5.75;;;-2.80;99.90;;;;;;5047297;28;20417;-77
2024/01/09 05:56:57;;;;;;;10.63;5.35;;;-2.80;99.90;;;;;;5045219;28;20130;-78
2024/01/09 05:59:23;;;;;;;10.23;5.38;;;-2.80;99.90;;;;;;5049730;28;20392;-75
2024/01/09 06:01:49;;;;;;;9.52;5.60;;;-2.80;99.90;;;;;;5049848;28;20460;-77
2024/01/09 06:04:14;;;;;;;10.55;5.60;;;-2.80;99.90;;;;;;5046469;28;20021;-78
2024/01/09 06:06:44;;;;;;;10.90;5.30;;;-2.80;99.90;;;;;;5055305;28;20539;-74
2024/01/09 06:09:10;;;;;;;10.35;4.75;;;-2.60;99.90;;;;;;5048038;28;20032;-73
2024/01/09 06:11:35;;;;;;;12.18;5.30;;;-2.70;99.90;;;;;;5049757;28;20046;-70
2024/01/09 06:14:01;;;;;;;9.98;4.85;;;-2.70;99.90;;;;;;5039739;28;20029;-77
2024/01/09 06:16:27;;;;;;;12.25;4.75;;;-2.80;99.90;;;;;;5045933;28;20032;-74
2024/01/09 06:18:53;;;;;;;10.90;5.25;;;-2.90;99.90;;;;;;5041364;28;20017;-78
2024/01/09 06:21:19;;;;;;;10.68;5.45;;;-2.90;99.90;;;;;;5045223;28;20367;-70
2024/01/09 06:23:47;;;;;;;10.32;5.95;;;-2.90;99.90;;;;;;5041861;28;20097;-73
2024/01/09 06:26:13;;;;;;;9.70;5.00;;;-2.90;99.90;;;;;;5046135;28;20100;-71
2024/01/09 06:28:39;;;;;;;10.60;5.15;;;-3.00;99.90;;;;;;5044812;28;20063;-77
2024/01/09 06:31:05;;;;;;;11.45;5.97;;;-3.00;99.90;;;;;;5043475;28;20052;-73
2024/01/09 06:33:31;;;;;;;11.70;6.10;;;-3.00;99.90;;;;;;5040297;28;20029;-78
2024/01/09 06:35:56;;;;;;;10.90;5.35;;;-3.00;99.90;;;;;;5038209;28;20124;-78
2024/01/09 06:38:22;;;;;;;15.02;5.82;;;-3.10;99.90;;;;;;5040122;28;20375;-73
2024/01/09 06:40:47;;;;;;;9.98;5.15;;;-3.00;99.90;;;;;;5050602;28;20399;-71
2024/01/09 06:43:13;;;;;;;12.27;5.97;;;-3.00;99.90;;;;;;5045561;28;20036;-70
2024/01/09 06:45:39;;;;;;;10.32;5.65;;;-3.10;99.90;;;;;;5043747;28;20531;-77
2024/01/09 06:48:05;;;;;;;12.02;5.72;;;-3.00;99.90;;;;;;5043730;28;20030;-78
2024/01/09 06:50:31;;;;;;;11.63;5.80;;;-2.90;99.90;;;;;;5046554;28;20063;-76
2024/01/09 06:52:57;;;;;;;11.20;6.25;;;-3.00;99.90;;;;;;5035588;28;20044;-75
2024/01/09 06:55:22;;;;;;;12.38;6.35;;;-3.00;99.90;;;;;;5042319;28;20404;-73
2024/01/09 06:57:48;;;;;;;11.27;6.20;;;-2.90;99.90;;;;;;5047777;28;20461;-78
2024/01/09 07:00:15;;;;;;;13.98;6.60;;;-2.90;99.90;;;;;;5042277;28;20033;-76
2024/01/09 07:02:42;;;;;;;11.00;5.28;;;-2.90;99.90;;;;;;5051117;28;20021;-72
2024/01/09 07:05:07;;;;;;;16.80;6.13;;;-3.10;99.90;;;;;;5044660;28;20033;-79
2024/01/09 07:07:33;;;;;;;10.80;5.75;;;-3.00;99.90;;;;;;5043086;28;20036;-78
2024/01/09 07:09:59;;;;;;;12.73;6.10;;;-3.00;99.90;;;;;;5043312;28;20041;-70
2024/01/09 07:12:25;;;;;;;14.00;6.05;;;-3.00;99.90;;;;;;5041080;28;20226;-80
2024/01/09 07:14:51;;;;;;;11.68;5.70;;;-3.00;99.90;;;;;;5045708;28;20060;-76
2024/01/09 07:17:16;;;;;;;14.63;6.13;;;-3.00;99.90;;;;;;5041757;28;20126;-79
2024/01/09 07:19:42;;;;;;;11.25;6.10;;;-3.00;99.90;;;;;;5044639;28;20072;-78
2024/01/09 07:22:08;;;;;;;11.98;5.68;;;-2.90;99.90;;;;;;5037467;28;20490;-73
2024/01/09 07:24:34;;;;;;;12.70;6.50;;;-3.00;99.90;;;;;;5045204;28;20376;-70
2024/01/09 07:26:59;;;;;;;10.93;5.70;;;-3.00;99.90;;;;;;5045822;28;20029;-75
2024/01/09 07:29:25;;;;;;;13.57;5.97;;;-3.00;99.90;;;;;;5043314;28;20537;-77
2024/01/09 07:31:51;;;;;;;9.13;5.03;;;-3.00;99.90;;;;;;5051109;28;20466;-77
2024/01/09 07:34:17;;;;;;;12.80;6.25;;;-2.90;99.90;;;;;;5041826;28;20064;-75
2024/01/09 07:36:43;;;;;;;12.27;5.97;;;-3.00;99.90;;;;;;5043286;28;20045;-70
2024/01/09 07:39:09;;;;;;;11.88;5.80;;;-3.00;99.90;;;;;;5043701;28;20044;-75
2024/01/09 07:41:36;;;;;;;12.20;6.07;;;-3.00;99.90;;;;;;5047403;28;20021;-73
2024/01/09 07:44:02;;;;;;;12.32;5.55;;;-2.90;99.90;;;;;;5050159;28;20039;-72
2024/01/09 07:46:28;;;;;;;10.07;5.45;;;-3.00;99.90;;;;;;5050359;28;20115;-77
2024/01/09 07:48:54;;;;;;;11.00;6.20;;;-3.10;99.90;;;;;;5047018;28;20518;-77
2024/01/09 07:51:20;;;;;;;10.38;5.43;;;-3.20;99.90;;;;;;5032269;28;20030;-77
2024/01/09 07:53:45;;;;;;;11.05;5.90;;;-3.10;99.90;;;;;;5010112;28;20107;-70
2024/01/09 07:56:16;;;;;;;14.23;6.60;;;-3.20;99.90;;;;;;5037109;28;20390;-73
2024/01/09 07:58:42;;;;;;;13.05;6.80;;;-3.10;99.90;;;;;;5035233;28;20372;-74
2024/01/09 08:01:08;;;;;;;11.30;5.90;;;-3.10;99.90;;;;;;5035997;28;20075;-75
2024/01/09 08:03:34;;;;;;;14.48;6.70;;;-3.20;99.90;;;;;;5036055;28;20021;-75
2024/01/09 08:06:00;;;;;;;12.55;6.25;;;-3.20;99.90;;;;;;5037459;28;20119;-75
2024/01/09 08:08:26;;;;;;;13.60;6.22;;;-3.20;99.90;;;;;;5037311;28;20017;-73
2024/01/09 08:10:51;;;;;;;11.48;5.95;;;-3.20;99.90;;;;;;5037201;28;20417;-77
2024/01/09 08:13:17;;;;;;;16.10;6.68;;;-3.30;99.90;;;;;;5035234;28;20439;-75
2024/01/09 08:15:42;;;;;;;14.15;6.72;;;-3.20;99.90;;;;;;5038179;28;20513;-81
2024/01/09 08:18:08;;;;;;;10.35;6.15;;;-3.10;99.90;;;;;;5033944;28;20669;-73
2024/01/09 08:20:34;;;;;;;14.77;7.05;;;-3.10;99.90;;;;;;5035032;28;20041;-77
2024/01/09 08:23:00;;;;;;;14.23;6.38;;;-2.90;99.90;;;;;;5032700;28;20043;-77
2024/01/09 08:25:25;;;;;;;10.25;5.80;;;-3.00;99.90;;;;;;5034311;28;20025;-75
2024/01/09 08:27:51;;;;;;;13.00;6.68;;;-3.10;99.90;;;;;;5035037;28;20029;-75
2024/01/09 08:30:17;;;;;;;11.00;6.63;;;-3.10;99.90;;;;;;5033299;28;20060;-73
2024/01/09 08:32:42;;;;;;;13.77;6.32;;;-3.10;99.90;;;;;;5031143;28;20367;-72
2024/01/09 08:35:08;;;;;;;10.98;5.95;;;-3.00;99.90;;;;;;5032034;28;20028;-75
2024/01/09 08:37:34;;;;;;;12.80;6.53;;;-3.00;99.90;;;;;;5030050;28;20036;-76
2024/01/09 08:40:00;;;;;;;14.73;6.70;;;-2.90;99.90;;;;;;5022522;28;20061;-71
2024/01/09 08:42:28;;;;;;;12.35;6.70;;;-3.00;99.90;;;;;;5029425;28;20107;-70
2024/01/09 08:44:54;;;;;;;13.60;6.68;;;-3.10;99.90;;;;;;5026792;28;20553;-75
2024/01/09 08:47:20;;;;;;;16.80;6.30;;;-3.00;99.90;;;;;;5032749;28;20112;-76
2024/01/09 08:49:45;;;;;;;15.40;6.20;;;-3.10;99.90;;;;;;5037149;28;20048;-76
2024/01/09 08:52:11;;;;;;;12.63;6.00;;;-3.00;99.90;;;;;;5037871;28;20437;-75
2024/01/09 08:54:37;;;;;;;13.82;6.70;;;-3.00;99.90;;;;;;5037942;28;20068;-75
2024/01/09 08:57:02;;;;;;;12.77;6.10;;;-3.10;99.90;;;;;;5046079;28;20402;-74
2024/01/09 08:59:28;;;;;;;14.70;6.28;;;-3.00;99.90;;;;;;5034245;28;20384;-75
2024/01/09 09:01:54;;;;;;;12.50;6.13;;;-2.90;99.90;;;;;;5038030;28;20024;-75
2024/01/09 09:04:19;;;;;;;12.07;6.28;;;-2.90;99.90;;;;;;5045856;28;20028;-74
2024/01/09 09:06:45;;;;;;;14.18;6.13;;;-2.90;99.90;;;;;;5050115;28;20447;-75
2024/01/09 09:09:11;;;;;;;10.70;6.25;;;-2.80;99.90;;;;;;5043094;28;20033;-75
2024/01/09 09:11:37;;;;;;;11.25;5.72;;;-2.70;99.90;;;;;;5050488;28;20112;-72
2024/01/09 09:14:03;;;;;;;11.88;6.35;;;-2.70;99.90;;;;;;5045382;28;20030;-73
2024/01/09 09:16:29;;;;;;;13.32;5.97;;;-2.60;99.90;;;;;;5041315;28;20098;-73
2024/01/09 09:18:55;;;;;;;15.45;6.88;;;-2.60;99.90;;;;;;5041184;28;20025;-74
2024/01/09 09:21:21;;;;;;;14.98;6.25;;;-2.60;99.90;;;;;;5041187;28;20200;-73
2024/01/09 09:23:47;;;;;;;11.20;6.10;;;-2.50;99.90;;;;;;5049102;28;20112;-72
2024/01/09 09:26:13;;;;;;;19.67;6.80;;;-2.50;99.90;;;;;;5045848;28;20013;-72
2024/01/09 09:28:44;;;;;;;9.38;5.30;;;-2.60;99.90;;;;;;5040415;28;20045;-72
2024/01/09 09:31:10;;;;;;;13.98;6.43;;;-2.50;99.90;;;;;;5040215;28;20112;-72
2024/01/09 09:33:35;;;;;;;11.93;6.05;;;-2.50;99.90;;;;;;5043029;28;20129;-70
2024/01/09 09:36:05;;;;;;;13.27;5.57;;;-2.40;99.90;;;;;;5038368;28;20497;-72
2024/01/09 09:38:33;;;;;;;13.48;6.18;;;-2.40;99.90;;;;;;5035494;28;20486;-72
2024/01/09 09:41:03;;;;;;;12.45;5.88;;;-2.30;99.90;;;;;;5042446;28;20021;-72
2024/01/09 09:43:32;;;;;;;12.90;6.15;;;-2.10;99.90;;;;;;5040942;28;20032;-72
2024/01/09 09:46:02;;;;;;;10.85;5.40;;;-2.10;99.90;;;;;;5048525;28;20029;-71
2024/01/09 09:48:29;;;;;;;9.15;5.50;;;-2.20;99.90;;;;;;5046541;28;20071;-72
2024/01/09 09:50:55;;;;;;;12.43;6.10;;;-2.00;99.90;;;;;;5051891;28;20505;-72
2024/01/09 09:53:27;;;;;;;13.02;6.85;;;-2.10;99.90;;;;;;5016145;28;20029;-73
2024/01/09 09:55:54;;;;;;;13.43;6.68;;;-1.80;99.90;;;;;;5022353;28;20029;-72
2024/01/09 09:58:20;;;;;;;11.82;5.78;;;-1.70;99.90;;;;;;5039555;28;20035;-70
2024/01/09 10:00:45;;;;;;;11.82;6.10;;;-1.70;99.90;;;;;;5040325;28;20074;-71
2024/01/09 10:03:15;;;;;;;10.80;5.78;;;-1.70;99.90;;;;;;5035137;28;20028;-71
2024/01/09 10:05:43;;;;;;;13.63;6.47;;;-1.50;99.90;;;;;;5035649;28;20023;-68
2024/01/09 10:08:11;;;;;;;12.77;7.20;;;-1.60;99.90;;;;;;5037378;28;20017;-70
2024/01/09 10:10:37;;;;;;;12.35;6.65;;;-1.60;99.90;;;;;;5036844;28;20100;-74
2024/01/09 10:13:03;;;;;;;15.98;6.18;;;-1.40;99.90;;;;;;5033145;28;20112;-73
2024/01/09 10:15:29;;;;;;;13.30;6.55;;;-1.50;99.90;;;;;;5037585;28;20021;-73
2024/01/09 10:17:57;;;;;;;12.13;6.53;;;-1.40;99.90;;;;;;5039218;28;20036;-70
2024/01/09 10:20:27;;;;;;;14.35;6.20;;;-1.30;99.90;;;;;;5038357;28;20034;-74
2024/01/09 10:22:53;;;;;;;12.63;6.45;;;-1.10;99.90;;;;;;5036195;28;20036;-72
2024/01/09 10:25:20;;;;;;;13.20;5.88;;;-1.00;99.90;;;;;;5039679;28;20124;-71
2024/01/09 10:27:46;;;;;;;10.43;5.45;;;-1.10;99.90;;;;;;5036795;28;20469;-70
2024/01/09 10:30:12;;;;;;;11.23;5.13;;;-0.90;99.90;;;;;;5037189;28;20025;-71
2024/01/09 10:32:39;;;;;;;11.30;5.78;;;-1.10;99.90;;;;;;5033732;28;20045;-72
2024/01/09 10:35:07;;;;;;;11.77;6.28;;;-1.00;99.90;;;;;;5037204;28;20114;-75
2024/01/09 10:37:33;;;;;;;11.85;6.03;;;-1.10;99.90;;;;;;5039579;28;20037;-70
2024/01/09 10:40:00;;;;;;;12.52;6.22;;;-1.00;99.90;;;;;;5035372;28;20032;-72
2024/01/09 10:42:27;;;;;;;10.55;5.80;;;-1.10;99.90;;;;;;5038312;28;20020;-73
2024/01/09 10:44:57;;;;;;;11.23;5.88;;;-1.10;99.90;;;;;;5035371;28;20026;-71
2024/01/09 10:47:24;;;;;;;10.07;5.75;;;-1.00;99.90;;;;;;5036704;28;20018;-76
2024/01/09 10:49:51;;;;;;;11.60;5.65;;;-0.90;99.90;;;;;;5036943;28;20108;-76
2024/01/09 10:52:17;;;;;;;10.48;5.93;;;-0.90;99.90;;;;;;5040281;28;22278;-75
2024/01/09 10:54:44;;;;;;;10.27;5.38;;;-0.80;99.90;;;;;;5038589;28;20021;-74
2024/01/09 10:57:12;;;;;;;14.73;6.57;;;-0.80;99.90;;;;;;5038321;28;20401;-75
2024/01/09 10:59:42;;;;;;;13.38;6.60;;;-0.70;99.90;;;;;;5038697;28;20111;-75
2024/01/09 11:02:16;;;;;;;12.80;5.68;;;-0.60;99.90;;;;;;5039568;28;20036;-74
2024/01/09 11:04:43;;;;;;;9.98;5.55;;;-0.70;99.90;;;;;;5037208;28;20108;-73
2024/01/09 11:07:14;;;;;;;13.55;6.00;;;-0.70;99.90;;;;;;5037586;28;20025;-75
2024/01/09 11:09:45;;;;;;;12.60;6.28;;;-0.60;99.90;;;;;;5037182;28;20025;-75
2024/01/09 11:12:23;;;;;;;15.20;6.05;;;-0.50;99.90;;;;;;5036239;28;20104;-77
2024/01/09 11:15:02;;;;;;;10.98;6.22;;;-0.40;99.90;;;;;;5035395;28;20030;-75
2024/01/09 11:17:30;;;;;;;10.80;5.75;;;-0.50;99.90;;;;;;5039149;28;20124;-76
2024/01/09 11:19:56;;;;;;;10.27;5.72;;;-0.60;99.90;;;;;;5037382;28;20108;-74
2024/01/09 11:22:22;;;;;;;8.98;5.45;;;-0.60;99.90;;;;;;5035466;28;20025;-74
2024/01/09 11:24:57;;;;;;;13.40;5.88;;;-0.60;99.90;;;;;;5031621;28;20029;-73
2024/01/09 11:27:23;;;;;;;11.68;6.10;;;-0.60;99.90;;;;;;5037537;28;20109;-73
2024/01/09 11:29:49;;;;;;;10.13;6.30;;;-0.50;99.90;;;;;;5034495;28;20293;-74
2024/01/09 11:32:33;;;;;;;11.57;6.55;;;-0.50;99.90;;;;;;5037253;28;20025;-72
2024/01/09 11:35:12;;;;;;;9.95;5.85;;;-0.50;99.90;;;;;;5035599;28;20105;-74
2024/01/09 11:37:40;;;;;;;11.95;6.10;;;-0.30;99.90;;;;;;5039866;28;20041;-73
2024/01/09 11:40:11;;;;;;;10.38;5.78;;;-0.30;99.90;;;;;;5040361;28;20112;-73
2024/01/09 11:42:44;;;;;;;11.43;6.55;;;-0.40;99.90;;;;;;5032055;28;20056;-73
2024/01/09 11:45:12;;;;;;;13.30;6.32;;;-0.30;99.90;;;;;;5034237;28;20022;-74
2024/01/09 11:47:42;;;;;;;10.77;6.53;;;-0.10;99.90;;;;;;5038897;28;20058;-72
2024/01/09 11:50:09;;;;;;;11.27;6.25;;;-0.10;99.90;;;;;;5038070;28;20025;-71
2024/01/09 11:52:37;;;;;;;13.57;6.38;;;0.00;99.90;;;;;;5036005;28;20021;-75
2024/01/09 11:55:07;;;;;;;10.55;5.90;;;-0.10;99.90;;;;;;5026908;28;20533;-73
2024/01/09 11:57:38;;;;;;;10.02;5.15;;;-0.10;99.90;;;;;;5036043;28;20037;-73
2024/01/09 12:00:06;;;;;;;11.35;5.32;;;-0.20;99.90;;;;;;5036785;28;20528;-74
2024/01/09 12:02:38;;;;;;;10.38;5.90;;;-0.20;99.90;;;;;;5035468;28;20080;-74
2024/01/09 12:05:04;;;;;;;;;;;-0.30;99.90;;;;;;5036925;28;20125;-73
2024/01/09 12:07:32;;;;;;;11.80;5.70;;;-0.30;99.90;;;;;;5031505;28;20000;-74
2024/01/09 12:10:00;;;;;;;9.95;6.43;;;-0.20;99.90;;;;;;5034939;28;20441;-75
2024/01/09 12:12:25;;;;;;;11.05;5.30;;;-0.20;99.90;;;;;;5034677;28;20072;-74
2024/01/09 12:14:55;;;;;;;14.98;6.57;;;0.00;99.90;;;;;;5036505;28;20041;-75
2024/01/09 12:17:23;;;;;;;8.77;5.28;;;0.10;99.90;;;;;;5034864;28;20087;-76
2024/01/09 12:19:52;;;;;;;11.65;6.00;;;0.10;99.90;;;;;;5035931;28;20112;-73
2024/01/09 12:22:19;;;;;;;11.60;6.05;;;0.20;99.90;;;;;;5034259;28;20036;-75
2024/01/09 12:24:46;;;;;;;10.13;5.68;;;0.10;99.90;;;;;;5034853;28;20032;-76
2024/01/09 12:27:13;;;;;;;7.50;5.10;;;0.20;99.90;;;;;;5035064;28;20385;-73
2024/01/09 12:29:40;;;;;;;10.45;5.15;;;0.10;99.90;;;;;;5034072;28;20021;-75
2024/01/09 12:32:06;;;;;;;10.52;5.65;;;0.10;99.90;;;;;;5036832;28;20430;-75
2024/01/09 12:34:32;;;;;;;8.93;4.82;;;0.10;99.90;;;;;;5036180;28;20374;-75
2024/01/09 12:37:00;;;;;;;9.77;5.35;;;0.00;99.90;;;;;;5034281;28;20045;-74